createdAt,value
2023-03-14T00:03:40.897Z,12.70
2023-03-14T00:07:43.679Z,12.70
2023-03-14T00:11:46.907Z,12.70
2023-03-14T00:15:49.753Z,12.60
2023-03-14T00:19:54.963Z,12.60
2023-03-14T00:23:57.831Z,12.60
2023-03-14T00:28:00.614Z,12.60
2023-03-14T00:32:04.582Z,12.50
2023-03-14T00:36:10.627Z,12.50
2023-03-14T00:40:13.625Z,12.50
2023-03-14T00:44:16.485Z,12.50
2023-03-14T00:48:19.362Z,12.50
2023-03-14T00:52:23.565Z,12.50
2023-03-14T00:56:26.429Z,12.50
2023-03-14T01:00:29.260Z,12.50
2023-03-14T01:04:32.492Z,12.50
2023-03-14T01:08:36.659Z,12.50
2023-03-14T01:12:39.547Z,12.50
2023-03-14T01:16:42.591Z,12.50
2023-03-14T01:20:45.406Z,12.50
2023-03-14T01:24:51.606Z,12.50
2023-03-14T01:28:55.081Z,12.50
2023-03-14T01:32:57.895Z,12.50
2023-03-14T01:37:00.784Z,12.50
2023-03-14T01:41:05.388Z,12.50
2023-03-14T01:45:23.358Z,12.50
2023-03-14T01:49:27.916Z,12.50
2023-03-14T01:53:31.264Z,12.50
2023-03-14T01:57:37.530Z,12.40
2023-03-14T02:01:43.454Z,12.40
2023-03-14T02:05:48.145Z,12.50
2023-03-14T02:09:51.110Z,12.50
2023-03-14T02:13:55.259Z,12.50
2023-03-14T02:17:58.995Z,12.50
2023-03-14T02:22:04.269Z,12.50
2023-03-14T02:26:11.068Z,12.50
2023-03-14T02:30:16.653Z,12.50
2023-03-14T02:34:19.514Z,12.60
2023-03-14T02:38:24.612Z,12.60
2023-03-14T02:42:27.431Z,12.60
2023-03-14T02:46:31.773Z,12.60
2023-03-14T02:50:35.828Z,12.50
2023-03-14T02:54:38.651Z,12.50
2023-03-14T02:58:41.479Z,12.50
2023-03-14T03:02:45.632Z,12.50
2023-03-14T03:06:49.569Z,12.50
2023-03-14T03:10:52.733Z,12.50
2023-03-14T03:14:55.539Z,12.50
2023-03-14T03:18:59.684Z,12.50
2023-03-14T03:23:02.508Z,12.40
2023-03-14T03:27:06.356Z,12.40
2023-03-14T03:31:10.063Z,12.30
2023-03-14T03:35:14.296Z,12.20
2023-03-14T03:39:17.092Z,12.00
2023-03-14T03:43:20.326Z,11.90
2023-03-14T03:47:23.144Z,11.80
2023-03-14T03:51:27.299Z,11.60
2023-03-14T03:55:30.142Z,11.50
2023-03-14T03:59:32.958Z,11.40
2023-03-14T04:03:36.095Z,11.30
2023-03-14T04:07:40.311Z,11.20
2023-03-14T04:11:43.267Z,11.10
2023-03-14T04:15:46.084Z,11.00
2023-03-14T04:19:51.804Z,10.90
2023-03-14T04:24:05.292Z,10.90
2023-03-14T04:28:08.110Z,10.80
2023-03-14T04:32:10.913Z,10.80
2023-03-14T04:36:14.217Z,10.70
2023-03-14T04:40:18.906Z,10.60
2023-03-14T04:44:21.923Z,10.50
2023-03-14T04:48:24.875Z,10.50
2023-03-14T04:52:28.099Z,10.50
2023-03-14T04:56:32.238Z,10.40
2023-03-14T05:00:35.101Z,10.40
2023-03-14T05:04:38.028Z,10.30
2023-03-14T05:08:40.794Z,10.30
2023-03-14T05:12:45.058Z,10.30
2023-03-14T05:16:47.850Z,10.20
2023-03-14T05:20:52.399Z,10.20
2023-03-14T05:24:57.733Z,10.20
2023-03-14T05:29:01.898Z,10.20
2023-03-14T05:33:04.732Z,10.20
2023-03-14T05:37:08.084Z,10.10
2023-03-14T05:41:10.906Z,10.10
2023-03-14T05:45:15.078Z,10.10
2023-03-14T05:49:17.856Z,10.10
2023-03-14T05:53:21.015Z,10.20
2023-03-14T05:57:23.849Z,10.20
2023-03-14T06:01:29.033Z,10.20
2023-03-14T06:05:31.829Z,10.20
2023-03-14T06:09:34.599Z,10.20
2023-03-14T06:13:37.469Z,10.30
2023-03-14T06:17:41.798Z,10.30
2023-03-14T06:21:44.644Z,10.40
2023-03-14T06:25:47.609Z,10.40
2023-03-14T06:29:50.536Z,10.40
2023-03-14T06:33:54.712Z,10.40
2023-03-14T06:37:57.525Z,10.50
2023-03-14T06:42:00.344Z,10.50
2023-03-14T06:46:03.223Z,10.50
2023-03-14T06:50:08.706Z,10.60
2023-03-14T06:54:11.551Z,10.60
2023-03-14T06:58:14.606Z,10.60
2023-03-14T07:02:17.441Z,10.60
2023-03-14T07:06:21.761Z,10.60
2023-03-14T07:10:24.596Z,10.60
2023-03-14T07:14:27.383Z,10.70
2023-03-14T07:18:30.364Z,10.70
2023-03-14T07:22:35.557Z,10.70
2023-03-14T07:26:38.353Z,10.70
2023-03-14T07:30:41.164Z,10.70
2023-03-14T07:34:44.013Z,10.80
2023-03-14T07:38:48.340Z,10.90
2023-03-14T07:42:51.304Z,11.20
2023-03-14T07:46:54.133Z,11.50
2023-03-14T07:50:57.273Z,11.80
2023-03-14T07:55:01.446Z,12.00
2023-03-14T07:59:09.915Z,12.20
2023-03-14T08:03:12.772Z,12.30
2023-03-14T08:07:15.583Z,12.20
2023-03-14T08:11:19.811Z,12.10
2023-03-14T08:15:22.950Z,12.00
2023-03-14T08:19:26.919Z,11.90
2023-03-14T08:23:29.741Z,11.70
2023-03-14T08:27:33.920Z,11.70
2023-03-14T08:31:36.975Z,11.60
2023-03-14T08:35:40.318Z,11.50
2023-03-14T08:39:51.060Z,11.50
2023-03-14T08:43:55.228Z,11.40
2023-03-14T08:47:59.364Z,11.30
2023-03-14T08:52:03.422Z,11.30
2023-03-14T08:56:07.177Z,11.30
2023-03-14T09:00:13.931Z,11.30
2023-03-14T09:04:16.795Z,11.30
2023-03-14T09:08:19.614Z,11.30
2023-03-14T09:12:22.432Z,11.30
2023-03-14T09:16:34.918Z,11.40
2023-03-14T09:20:37.909Z,11.50
2023-03-14T09:24:41.898Z,11.50
2023-03-14T09:28:44.744Z,11.70
2023-03-14T09:32:48.968Z,11.80
2023-03-14T09:36:51.817Z,11.90
2023-03-14T09:40:55.283Z,12.00
2023-03-14T09:44:59.184Z,12.00
2023-03-14T09:49:03.634Z,12.00
2023-03-14T09:53:08.869Z,12.00
2023-03-14T09:57:14.728Z,12.00
2023-03-14T10:01:20.018Z,12.00
2023-03-14T10:05:25.080Z,12.00
2023-03-14T10:09:29.564Z,12.00
2023-03-14T10:13:32.719Z,12.00
2023-03-14T10:17:40.935Z,11.90
2023-03-14T10:21:45.835Z,11.90
2023-03-14T10:26:07.205Z,11.90
2023-03-14T10:30:28.615Z,12.00
2023-03-14T10:34:32.638Z,12.00
2023-03-14T10:38:37.691Z,11.70
2023-03-14T10:42:41.838Z,11.50
2023-03-14T10:46:44.731Z,10.90
2023-03-14T10:54:55.932Z,10.50
2023-03-14T10:58:59.593Z,10.20
2023-03-14T11:03:08.529Z,9.40
2023-03-14T11:07:15.129Z,9.40
2023-03-14T11:11:22.821Z,9.10
2023-03-14T11:15:28.280Z,8.70
2023-03-14T11:19:46.031Z,8.40
2023-03-14T11:23:54.306Z,7.90
2023-03-14T11:32:03.857Z,6.90
2023-03-14T11:36:08.764Z,6.90
2023-03-14T11:40:15.699Z,6.60
2023-03-14T11:44:20.798Z,6.40
2023-03-14T11:48:31.337Z,6.10
2023-03-14T11:52:36.443Z,6.00
2023-03-14T11:56:41.613Z,5.90
2023-03-14T12:00:45.736Z,5.80
2023-03-14T12:04:54.365Z,5.70
2023-03-14T12:08:58.728Z,5.60
2023-03-14T12:13:01.630Z,5.60
2023-03-14T12:17:07.087Z,5.60
2023-03-14T12:21:12.958Z,5.60
2023-03-14T12:25:17.729Z,5.60
2023-03-14T12:29:20.551Z,5.70
2023-03-14T12:33:28.489Z,5.80
2023-03-14T12:37:35.585Z,5.80
2023-03-14T12:41:40.516Z,5.90
2023-03-14T12:49:49.120Z,6.00
2023-03-14T12:53:57.979Z,6.00
2023-03-14T12:58:05.732Z,6.10
2023-03-14T13:02:32.386Z,6.10
2023-03-14T13:06:48.101Z,6.10
2023-03-14T13:10:52.307Z,6.10
2023-03-14T13:14:55.375Z,6.20
2023-03-14T13:19:02.020Z,6.20
2023-03-14T13:23:06.846Z,6.20
2023-03-14T13:27:16.504Z,6.10
2023-03-14T13:31:23.544Z,6.00
2023-03-14T13:35:27.907Z,5.90
2023-03-14T13:39:31.341Z,5.80
2023-03-14T13:43:36.541Z,5.70
2023-03-14T13:47:40.708Z,5.70
2023-03-14T13:51:43.690Z,5.70
2023-03-14T13:55:46.500Z,5.70
2023-03-14T14:00:01.641Z,5.70
2023-03-14T14:04:09.791Z,5.70
2023-03-14T14:08:13.878Z,5.80
2023-03-14T14:12:18.933Z,5.80
2023-03-14T14:16:25.967Z,5.80
2023-03-14T14:20:32.796Z,5.80
2023-03-14T14:24:36.624Z,5.90
2023-03-14T14:28:41.277Z,5.90
2023-03-14T14:32:45.905Z,5.80
2023-03-14T14:36:50.899Z,5.80
2023-03-14T14:40:55.539Z,5.80
2023-03-14T14:44:58.913Z,5.90
2023-03-14T14:49:06.538Z,5.90
2023-03-14T14:53:22.733Z,5.90
2023-03-14T14:57:28.142Z,6.10
2023-03-14T15:01:35.323Z,6.30
2023-03-14T15:05:40.459Z,6.40
2023-03-14T15:09:44.298Z,6.50
2023-03-14T15:13:47.158Z,6.60
2023-03-14T15:17:49.966Z,6.70
2023-03-14T15:21:54.609Z,6.70
2023-03-14T15:25:57.544Z,6.70
2023-03-14T15:30:01.481Z,6.60
2023-03-14T15:34:04.391Z,6.60
2023-03-14T15:38:11.832Z,6.50
2023-03-14T15:42:14.842Z,6.40
2023-03-14T15:46:19.346Z,6.40
2023-03-14T15:50:22.696Z,6.30
2023-03-14T15:54:29.305Z,6.30
2023-03-14T15:58:34.822Z,6.30
2023-03-14T16:02:41.117Z,6.30
2023-03-14T16:06:45.441Z,6.40
2023-03-14T16:10:49.659Z,6.50
2023-03-14T16:14:52.674Z,6.70
2023-03-14T16:18:55.560Z,7.00
2023-03-14T16:22:58.331Z,7.30
2023-03-14T16:27:02.559Z,7.50
2023-03-14T16:31:06.039Z,7.60
2023-03-14T16:35:09.866Z,7.70
2023-03-14T16:39:12.683Z,7.80
2023-03-14T16:43:16.898Z,7.80
2023-03-14T16:47:19.747Z,7.80
2023-03-14T16:51:22.767Z,7.70
2023-03-14T16:55:26.856Z,7.60
2023-03-14T16:59:31.886Z,7.40
2023-03-14T17:03:41.089Z,7.30
2023-03-14T17:07:44.001Z,7.20
2023-03-14T17:11:46.800Z,7.00
2023-03-14T17:15:53.487Z,6.80
2023-03-14T17:19:56.320Z,6.70
2023-03-14T17:24:01.489Z,6.50
2023-03-14T17:28:04.285Z,6.40
2023-03-14T17:32:08.582Z,6.30
2023-03-14T17:36:13.171Z,6.10
2023-03-14T17:40:16.305Z,6.00
2023-03-14T17:44:25.962Z,5.90
2023-03-14T17:48:30.098Z,5.70
2023-03-14T17:52:32.983Z,5.60
2023-03-14T17:56:38.466Z,5.50
2023-03-14T18:00:43.469Z,5.30
2023-03-14T18:04:47.928Z,5.30
2023-03-14T18:08:51.459Z,5.20
2023-03-14T18:13:03.136Z,5.00
2023-03-14T18:17:06.023Z,5.00
2023-03-14T18:21:11.483Z,4.90
2023-03-14T18:25:30.572Z,4.90
2023-03-14T18:29:34.286Z,4.90
2023-03-14T18:33:39.096Z,4.90
2023-03-14T18:37:45.607Z,4.80
2023-03-14T18:45:52.060Z,4.70
2023-03-14T18:49:55.103Z,4.60
2023-03-14T18:54:09.812Z,4.50
2023-03-14T18:58:13.841Z,4.50
2023-03-14T19:02:16.740Z,4.40
2023-03-14T19:06:21.556Z,4.40
2023-03-14T19:10:26.579Z,4.30
2023-03-14T19:14:29.524Z,4.30
2023-03-14T19:18:33.172Z,4.30
2023-03-14T19:22:35.988Z,4.20
2023-03-14T19:26:40.266Z,4.20
2023-03-14T19:30:43.064Z,4.10
2023-03-14T19:34:45.902Z,4.10
2023-03-14T19:38:48.855Z,4.00
2023-03-14T19:42:53.052Z,4.00
2023-03-14T19:46:55.873Z,4.00
2023-03-14T19:51:00.381Z,4.00
2023-03-14T19:55:03.193Z,4.00
2023-03-14T19:59:07.383Z,4.00
2023-03-14T20:03:10.286Z,4.00
2023-03-14T20:07:13.541Z,4.00
2023-03-14T20:11:17.419Z,4.00
2023-03-14T20:15:25.220Z,4.00
2023-03-14T20:19:29.675Z,4.00
2023-03-14T20:23:32.466Z,4.00
2023-03-14T20:27:35.730Z,3.90
2023-03-14T20:31:40.204Z,3.90
2023-03-14T20:35:44.437Z,3.80
2023-03-14T20:39:48.306Z,3.80
2023-03-14T20:43:51.151Z,3.70
2023-03-14T20:47:55.939Z,3.70
2023-03-14T20:52:06.621Z,3.70
2023-03-14T20:56:09.452Z,3.70
2023-03-14T21:00:13.830Z,3.60
2023-03-14T21:04:16.989Z,3.60
2023-03-14T21:08:22.342Z,3.60
2023-03-14T21:12:29.103Z,3.60
2023-03-14T21:16:32.342Z,3.50
2023-03-14T21:20:36.607Z,3.50
2023-03-14T21:24:42.382Z,3.50
2023-03-14T21:28:46.554Z,3.50
2023-03-14T21:32:49.645Z,3.50
2023-03-14T21:36:52.504Z,3.40
2023-03-14T21:40:57.272Z,3.40
2023-03-14T21:45:01.464Z,3.40
2023-03-14T21:49:05.335Z,3.40
2023-03-14T21:53:08.282Z,3.30
2023-03-14T21:57:11.583Z,3.30
2023-03-14T22:01:15.742Z,3.30
2023-03-14T22:05:22.197Z,3.20
2023-03-14T22:09:24.975Z,3.20
2023-03-14T22:13:28.665Z,3.10
2023-03-14T22:17:32.895Z,3.10
2023-03-14T22:21:35.722Z,3.10
2023-03-14T22:25:40.108Z,3.10
2023-03-14T22:29:43.026Z,3.00
2023-03-14T22:33:47.173Z,3.00
2023-03-14T22:37:52.086Z,3.00
2023-03-14T22:42:02.977Z,2.90
2023-03-14T22:46:08.276Z,2.90
2023-03-14T22:50:13.830Z,2.90
2023-03-14T22:54:16.663Z,2.90
2023-03-14T22:58:19.494Z,2.80
2023-03-14T23:02:22.312Z,2.80
2023-03-14T23:06:26.483Z,2.80
2023-03-14T23:10:29.564Z,2.80
2023-03-14T23:14:32.680Z,2.80
2023-03-14T23:18:35.674Z,2.70
2023-03-14T23:22:41.488Z,2.70
2023-03-14T23:26:46.242Z,2.70
2023-03-14T23:30:49.094Z,2.70
2023-03-14T23:34:52.050Z,2.70
2023-03-14T23:39:04.200Z,2.70
2023-03-14T23:43:08.349Z,2.70
2023-03-14T23:47:11.175Z,2.70
2023-03-14T23:51:14.149Z,2.70
2023-03-14T23:55:16.976Z,2.70
2023-03-14T23:59:22.205Z,2.70
